createdAt,value
2022-08-04T00:05:29.875Z,18.78
2022-08-04T00:25:29.866Z,18.78
2022-08-04T00:45:29.837Z,18.77
2022-08-04T01:05:36.617Z,18.77
2022-08-04T01:25:29.786Z,18.76
2022-08-04T01:45:29.724Z,18.75
2022-08-04T02:06:02.707Z,18.71
2022-08-04T02:25:29.723Z,18.69
2022-08-04T02:45:29.397Z,18.67
2022-08-04T03:05:29.651Z,18.67
2022-08-04T03:25:29.337Z,18.66
2022-08-04T03:45:29.591Z,18.63
2022-08-04T04:05:29.879Z,18.59
2022-08-04T04:25:29.535Z,18.57
2022-08-04T04:45:29.514Z,18.56
2022-08-04T05:05:29.482Z,18.54
2022-08-04T05:25:29.484Z,18.5
2022-08-04T05:45:29.429Z,18.47
2022-08-04T06:05:29.394Z,18.47
2022-08-04T06:25:29.367Z,18.46
2022-08-04T07:05:29.301Z,18.41
2022-08-04T07:25:57.181Z,18.38
2022-08-04T07:45:29.240Z,18.37
2022-08-04T08:05:29.205Z,18.36
2022-08-04T08:25:29.169Z,18.36
2022-08-04T08:45:29.136Z,18.34
2022-08-04T09:25:28.815Z,18.31
2022-08-04T09:45:31.819Z,18.29
2022-08-04T10:05:28.982Z,18.28
2022-08-04T10:25:37.789Z,18.28
2022-08-04T10:45:28.961Z,18.27
2022-08-04T11:05:28.945Z,18.27
2022-08-04T11:25:28.916Z,18.27
2022-08-04T11:45:28.894Z,18.28
2022-08-04T12:05:36.150Z,18.29
2022-08-04T12:25:28.550Z,18.31
2022-08-04T12:45:28.815Z,18.34
2022-08-04T13:05:28.488Z,18.36
2022-08-04T13:26:41.107Z,18.37
2022-08-04T13:45:33.914Z,18.39
2022-08-04T14:05:31.315Z,18.44
2022-08-04T14:25:35.491Z,18.46
2022-08-04T15:05:55.688Z,18.48
2022-08-04T15:25:28.564Z,18.52
2022-08-04T17:25:52.399Z,18.68
2022-08-04T17:45:51.569Z,18.72
2022-08-04T18:25:50.338Z,18.77
2022-08-04T18:45:34.193Z,18.77
2022-08-04T19:05:37.892Z,18.79
2022-08-04T19:25:59.765Z,18.81
2022-08-04T19:45:40.161Z,18.84
2022-08-04T20:25:36.243Z,18.87
2022-08-04T20:45:56.081Z,18.87
2022-08-04T21:05:28.038Z,18.87
2022-08-04T21:25:28.004Z,18.88
2022-08-04T22:05:27.939Z,18.87
2022-08-04T22:45:28.681Z,18.87
2022-08-04T23:05:29.151Z,18.87
2022-08-04T23:25:32.916Z,18.87
2022-08-04T23:46:04.909Z,18.87
